Time;durP1;ratioP1;P1;durP2;ratioP2;P2;SDS_P1;SDS_P2;PMS_P1;PMS_P2;Temp;Humidity;BMP_temperature;BMP_pressure;BME280_temperature;BME280_humidity;BME280_pressure;Samples;Min_cycle;Max_cycle;Signal;HPM_P1;HPM_P2
2022/05/11 00:01:14;;;;;;;5.07;2.42;;;;;;;20.89;35.52;97835.22;9997481;29;20098;-75
2022/05/11 00:06:35;;;;;;;3.00;1.92;;;;;;;20.83;35.38;97825.13;9997298;29;20078;-75
2022/05/11 00:11:56;;;;;;;5.35;2.35;;;;;;;20.83;35.51;97822.28;10010075;29;20086;-75
2022/05/11 00:17:16;;;;;;;2.80;2.20;;;;;;;20.82;35.94;97814.47;10009451;29;20077;-75
2022/05/11 00:22:37;;;;;;;3.88;2.50;;;;;;;20.78;35.47;97814.34;10022845;29;20505;-76
2022/05/11 00:27:58;;;;;;;4.22;2.33;;;;;;;20.64;35.74;97808.97;10009204;29;20106;-78
2022/05/11 00:33:19;;;;;;;4.40;2.50;;;;;;;20.48;35.83;97806.41;10009764;29;20073;-75
2022/05/11 00:38:40;;;;;;;3.53;2.40;;;;;;;20.46;36.04;97805.59;9996195;29;20053;-75
2022/05/11 00:44:01;;;;;;;3.92;2.45;;;;;;;20.41;36.21;97804.03;10008778;29;20046;-76
2022/05/11 00:49:36;;;;;;;4.10;2.55;;;;;;;20.34;36.39;97808.06;9995733;29;20053;-75
2022/05/11 00:54:59;;;;;;;4.45;2.38;;;;;;;20.32;36.47;97810.84;9996950;29;20046;-76
2022/05/11 01:00:20;;;;;;;4.07;2.55;;;;;;;20.29;36.77;97807.22;10008512;29;20106;-76
2022/05/11 01:05:42;;;;;;;7.95;3.28;;;;;;;20.28;36.66;97800.09;9995427;29;20493;-75
2022/05/11 01:11:03;;;;;;;4.93;2.60;;;;;;;20.24;36.84;97797.84;9995793;29;20045;-75
2022/05/11 01:16:24;;;;;;;4.00;2.05;;;;;;;20.24;36.84;97788.63;10031542;29;20858;-77
2022/05/11 01:21:47;;;;;;;3.88;2.33;;;;;;;20.21;36.83;97796.34;10041369;29;20069;-75
2022/05/11 01:27:29;;;;;;;7.50;2.80;;;;;;;20.20;37.40;97785.69;10017426;29;20045;-75
2022/05/11 01:32:53;;;;;;;2.97;2.50;;;;;;;20.12;37.58;97788.28;10040525;29;20057;-75
2022/05/11 01:38:51;;;;;;;4.50;2.60;;;;;;;20.01;37.54;97787.97;10042786;29;20108;-77
2022/05/11 01:44:13;;;;;;;4.72;2.63;;;;;;;19.93;37.58;97784.16;10042208;29;20071;-75
2022/05/11 01:49:34;;;;;;;5.78;2.70;;;;;;;19.86;37.73;97779.66;10028218;29;20116;-77
2022/05/11 01:54:55;;;;;;;3.83;2.80;;;;;;;19.81;37.90;97769.59;10026320;29;20081;-78
2022/05/11 02:00:16;;;;;;;3.35;2.75;;;;;;;19.71;38.04;97770.72;10018664;29;20076;-78
2022/05/11 02:11:17;;;;;;;5.45;2.75;;;;;;;19.54;38.27;97768.00;10031647;29;20527;-76
2022/05/11 02:16:37;;;;;;;5.43;2.55;;;;;;;19.34;38.56;97771.59;10039199;29;20494;-76
2022/05/11 02:21:59;;;;;;;3.80;2.97;;;;;;;19.27;39.04;97764.28;10027184;29;20050;-76
2022/05/11 02:27:19;;;;;;;4.47;2.83;;;;;;;19.26;39.31;97779.09;10031730;29;20105;-75
2022/05/11 02:32:40;;;;;;;5.38;2.92;;;;;;;19.23;39.35;97771.94;10018801;29;20440;-75
2022/05/11 02:38:03;;;;;;;4.35;2.53;;;;;;;19.17;39.43;97767.50;10056948;29;20079;-75
2022/05/11 02:43:24;;;;;;;2.83;2.50;;;;;;;19.11;39.72;97767.31;10031563;29;20056;-75
2022/05/11 02:48:44;;;;;;;4.65;2.90;;;;;;;19.09;39.71;97763.66;10030946;29;20350;-76
2022/05/11 02:54:05;;;;;;;3.67;2.70;;;;;;;19.08;39.80;97765.78;10031475;29;20045;-75
2022/05/11 02:59:25;;;;;;;5.25;2.78;;;;;;;19.01;39.81;97764.13;10033442;29;20061;-75
2022/05/11 03:04:49;;;;;;;3.25;2.40;;;;;;;18.96;39.89;97771.00;10037473;29;20069;-74
2022/05/11 03:10:09;;;;;;;;;;;;;;;18.89;40.54;97772.16;10050355;29;20088;-74
2022/05/11 03:15:31;;;;;;;4.57;2.45;;;;;;;18.90;39.95;97773.63;10049982;29;19924;-75
2022/05/11 03:20:55;;;;;;;4.60;2.67;;;;;;;18.92;40.07;97773.72;10024243;29;20060;-74
2022/05/11 03:26:16;;;;;;;3.92;2.60;;;;;;;18.93;40.17;97775.16;10036796;29;20068;-73
2022/05/11 03:31:36;;;;;;;4.65;2.90;;;;;;;18.93;40.11;97782.91;10049477;29;20077;-75
2022/05/11 03:36:57;;;;;;;5.22;2.80;;;;;;;18.92;40.25;97779.38;10036363;29;20129;-75
2022/05/11 03:42:28;;;;;;;4.35;2.80;;;;;;;18.91;40.28;97774.34;10025757;29;20416;-75
2022/05/11 03:47:49;;;;;;;4.40;2.78;;;;;;;18.92;40.45;97785.03;10037026;29;20488;-75
2022/05/11 03:53:09;;;;;;;4.43;2.72;;;;;;;18.89;40.68;97789.13;10062382;29;20060;-77
2022/05/11 03:58:30;;;;;;;4.70;2.70;;;;;;;18.90;40.53;97796.25;10035844;29;20082;-76
2022/05/11 04:03:51;;;;;;;5.78;2.53;;;;;;;19.00;40.69;97782.47;10035072;29;20053;-76
2022/05/11 04:09:12;;;;;;;3.88;2.60;;;;;;;19.01;40.59;97794.50;10034907;29;20090;-76
2022/05/11 04:14:32;;;;;;;3.90;2.83;;;;;;;19.07;40.75;97792.63;10034723;29;20061;-76
2022/05/11 04:19:53;;;;;;;4.45;2.60;;;;;;;19.16;40.97;97794.34;10034472;29;20053;-75
2022/05/11 04:25:15;;;;;;;4.30;2.45;;;;;;;19.24;40.84;97790.34;10034700;29;20473;-76
2022/05/11 04:30:37;;;;;;;5.35;2.60;;;;;;;19.35;40.92;97786.47;10022544;29;20072;-75
2022/05/11 04:35:57;;;;;;;5.82;3.10;;;;;;;19.46;41.04;97796.75;10019226;29;20507;-75
2022/05/11 04:41:18;;;;;;;3.58;2.88;;;;;;;19.64;40.88;97794.56;10068099;29;20048;-74
2022/05/11 04:46:45;;;;;;;4.05;3.03;;;;;;;19.71;40.89;97787.72;9997081;29;20057;-75
2022/05/11 04:52:07;;;;;;;6.65;2.92;;;;;;;19.83;41.08;97783.81;10008129;29;20057;-75
2022/05/11 04:57:28;;;;;;;4.93;2.90;;;;;;;19.92;40.70;97788.38;10062700;29;20085;-73
2022/05/11 05:02:49;;;;;;;3.13;2.55;;;;;;;20.00;40.74;97783.69;10045490;29;20057;-72
2022/05/11 05:08:10;;;;;;;4.70;2.55;;;;;;;20.25;40.89;97793.63;10071519;29;20045;-74
2022/05/11 05:13:31;;;;;;;4.55;2.60;;;;;;;20.43;40.42;97787.81;10070805;29;20057;-74
2022/05/11 05:18:51;;;;;;;5.75;2.70;;;;;;;20.69;40.41;97790.72;10097724;29;20049;-75
2022/05/11 05:24:12;;;;;;;5.13;2.60;;;;;;;20.95;40.29;97787.88;10069708;29;20052;-74
2022/05/11 05:35:16;;;;;;;4.07;2.40;;;;;;;21.96;39.07;97803.97;10073111;29;20067;-74
2022/05/11 05:40:37;;;;;;;6.35;3.03;;;;;;;22.33;38.78;97804.84;10044975;29;20045;-74
2022/05/11 05:45:58;;;;;;;6.50;2.40;;;;;;;22.71;38.68;97801.38;10057360;29;20045;-75
2022/05/11 05:51:20;;;;;;;5.15;2.45;;;;;;;23.24;37.69;97816.66;10096148;29;20045;-76
2022/05/11 05:56:40;;;;;;;6.03;2.70;;;;;;;23.45;37.63;97804.25;10069385;29;20045;-74
2022/05/11 06:02:01;;;;;;;4.00;2.88;;;;;;;23.54;36.58;97805.09;10069992;29;20045;-74
2022/05/11 06:07:22;;;;;;;4.18;2.05;;;;;;;23.48;36.47;97800.03;10056356;29;20448;-75
2022/05/11 06:12:44;;;;;;;3.80;1.90;;;;;;;23.42;36.28;97802.75;10056916;29;20045;-74
2022/05/11 06:18:06;;;;;;;6.85;2.00;;;;;;;23.82;36.25;97805.59;10069141;29;20089;-76
2022/05/11 06:23:28;;;;;;;4.75;2.13;;;;;;;24.04;35.30;97815.94;10069912;29;20045;-76
2022/05/11 06:28:48;;;;;;;3.15;1.95;;;;;;;23.97;35.53;97812.97;10081935;29;20052;-75
2022/05/11 06:34:11;;;;;;;;;;;;;;;24.04;34.50;97805.25;10061744;29;20064;-74
2022/05/11 06:39:32;;;;;;;7.70;2.53;;;;;;;24.22;35.17;97805.53;10056194;29;19924;-73
2022/05/11 06:44:52;;;;;;;4.97;1.65;;;;;;;25.69;35.40;97808.00;10048849;29;20048;-75
2022/05/11 06:50:14;;;;;;;7.30;2.05;;;;;;;27.09;34.47;97808.19;10024812;29;20069;-73
2022/05/11 07:01:19;;;;;;;4.65;1.73;;;;;;;30.71;31.65;97793.88;10077829;29;20048;-76
2022/05/11 07:06:41;;;;;;;4.70;1.50;;;;;;;33.24;27.65;97799.06;10050831;29;20124;-76
2022/05/11 07:12:18;;;;;;;1.63;1.10;;;;;;;35.44;24.76;97799.88;10062337;29;20075;-77
2022/05/11 07:17:44;;;;;;;2.72;1.45;;;;;;;37.57;20.76;97801.88;10065961;29;20053;-77
2022/05/11 07:23:07;;;;;;;3.05;1.17;;;;;;;39.66;18.65;97801.47;10062775;29;20396;-78
2022/05/11 07:28:28;;;;;;;2.38;1.10;;;;;;;41.67;16.03;97801.91;10087517;29;20110;-76
2022/05/11 07:33:51;;;;;;;2.53;1.05;;;;;;;43.16;14.34;97796.00;10075249;29;20650;-78
2022/05/11 07:39:13;;;;;;;3.08;1.27;;;;;;;43.75;12.53;97806.91;10087302;29;20472;-77
2022/05/11 07:44:34;;;;;;;2.00;0.75;;;;;;;43.12;12.53;97807.97;10073129;29;20045;-81
2022/05/11 07:49:56;;;;;;;3.78;1.10;;;;;;;44.26;12.25;97807.16;10046138;29;20057;-79
2022/05/11 07:55:18;;;;;;;2.13;0.73;;;;;;;45.29;10.90;97794.91;10071043;29;20464;-77
2022/05/11 08:00:40;;;;;;;2.75;0.90;;;;;;;46.37;10.64;97795.75;10086584;29;20122;-78
2022/05/11 08:06:04;;;;;;;3.90;0.80;;;;;;;47.73;9.85;97793.09;10048183;29;20051;-78
2022/05/11 08:11:25;;;;;;;3.72;0.85;;;;;;;48.50;8.30;97794.78;10073966;29;20069;-77
2022/05/11 08:16:52;;;;;;;2.63;1.00;;;;;;;48.00;8.36;97792.28;10034092;29;20137;-77
2022/05/11 08:22:14;;;;;;;3.90;0.73;;;;;;;48.05;8.64;97786.72;10010000;29;20050;-76
2022/05/11 08:27:35;;;;;;;3.38;0.90;;;;;;;48.03;8.61;97780.97;10009368;29;20069;-76
2022/05/11 08:38:57;;;;;;;3.05;0.98;;;;;;;45.99;8.58;97788.25;10013914;29;20045;-76
2022/05/11 08:44:26;;;;;;;2.58;0.90;;;;;;;47.77;8.58;97777.94;9995835;29;20124;-77
2022/05/11 08:50:04;;;;;;;5.60;0.75;;;;;;;47.82;8.43;97773.09;9996317;29;20052;-77
2022/05/11 08:55:40;;;;;;;3.13;1.17;;;;;;;42.84;10.21;97770.06;10029124;29;20408;-76
2022/05/11 09:01:07;;;;;;;;;;;;;;;44.38;10.62;97764.44;10046443;29;20124;-77
2022/05/11 09:06:30;;;;;;;2.45;0.93;;;;;;;44.79;10.29;97770.47;10058760;29;19931;-77
2022/05/11 09:11:53;;;;;;;1.73;0.65;;;;;;;44.69;10.34;97768.25;10020629;29;20050;-76
2022/05/11 09:17:44;;;;;;;2.55;1.00;;;;;;;46.85;9.82;97758.78;10033668;29;20167;-77
2022/05/11 09:23:07;;;;;;;3.13;1.00;;;;;;;51.74;7.21;97759.50;10023399;29;20406;-79
2022/05/11 09:28:31;;;;;;;1.30;0.77;;;;;;;51.92;6.10;97763.59;10032994;29;20098;-79
2022/05/11 09:34:04;;;;;;;2.20;0.90;;;;;;;47.78;7.72;97764.59;10019810;29;20483;-80
2022/05/11 09:40:03;;;;;;;3.35;0.70;;;;;;;49.80;7.17;97748.38;10037786;29;20074;-78
2022/05/11 09:45:48;;;;;;;2.90;0.60;;;;;;;52.63;5.84;97747.38;10033933;29;20076;-77
2022/05/11 09:51:21;;;;;;;2.28;0.70;;;;;;;54.01;4.44;97749.75;10032951;29;20052;-77
2022/05/11 09:56:49;;;;;;;1.95;1.13;;;;;;;55.03;4.55;97735.34;10032578;29;20049;-79
2022/05/11 10:02:23;;;;;;;2.97;1.20;;;;;;;55.85;4.27;97726.50;10033348;29;20132;-79
2022/05/11 10:08:25;;;;;;;2.05;1.20;;;;;;;55.32;4.28;97717.78;10033992;29;20049;-78
2022/05/11 10:25:49;;;;;;;2.40;1.80;;;;;;;55.81;4.33;97702.38;10031400;29;20105;-80
2022/05/11 10:31:34;;;;;;;6.72;1.90;;;;;;;55.65;3.51;97705.69;10039850;29;20052;-78
2022/05/11 10:37:07;;;;;;;6.00;1.20;;;;;;;53.20;5.15;97698.97;10039112;29;20425;-79
2022/05/11 10:42:39;;;;;;;2.20;1.20;;;;;;;53.78;4.57;97691.16;10052359;29;20046;-78
2022/05/11 10:48:28;;;;;;;3.17;0.90;;;;;;;53.57;4.55;97689.00;10039392;29;20057;-79
2022/05/11 10:53:52;;;;;;;3.95;0.80;;;;;;;52.52;4.92;97701.72;10051241;29;20060;-79
2022/05/11 10:59:32;;;;;;;3.58;0.93;;;;;;;47.46;6.24;97679.97;10051127;29;20057;-78
2022/05/11 11:05:05;;;;;;;4.07;1.17;;;;;;;42.59;9.44;97676.31;10050787;29;20577;-79
2022/05/11 11:10:39;;;;;;;3.33;1.45;;;;;;;40.39;11.26;97656.75;10050531;29;20048;-79
2022/05/11 11:16:01;;;;;;;4.88;1.42;;;;;;;38.77;12.92;97645.19;10027471;29;20054;-79
2022/05/11 11:21:23;;;;;;;4.53;1.55;;;;;;;37.49;14.29;97655.16;10024097;29;20049;-78
2022/05/11 11:26:48;;;;;;;3.88;1.77;;;;;;;36.63;15.30;97643.28;10050109;29;20422;-78
2022/05/11 11:32:20;;;;;;;3.63;1.70;;;;;;;35.49;16.21;97643.72;10049908;29;20060;-76
2022/05/11 11:37:43;;;;;;;5.13;1.70;;;;;;;35.15;16.96;97625.25;10037300;29;20068;-76
2022/05/11 11:43:38;;;;;;;4.70;1.85;;;;;;;34.65;17.48;97623.19;10036815;29;20049;-77
2022/05/11 11:49:21;;;;;;;2.20;2.00;;;;;;;34.34;17.88;97622.63;10037089;29;20049;-77
2022/05/11 11:54:46;;;;;;;2.83;1.63;;;;;;;33.82;18.30;97628.41;10056332;29;20053;-76
2022/05/11 12:00:29;;;;;;;9.70;2.40;;;;;;;33.54;18.54;97615.41;10048900;29;20045;-76
2022/05/11 12:05:54;;;;;;;6.07;1.80;;;;;;;33.42;18.50;97599.09;10065207;29;20045;-77
2022/05/11 12:16:58;;;;;;;4.03;1.77;;;;;;;32.36;19.25;97592.16;10016574;29;20069;-76
2022/05/11 12:22:22;;;;;;;2.15;1.70;;;;;;;31.60;19.96;97599.41;10007068;29;20050;-77
2022/05/11 12:27:43;;;;;;;4.70;1.65;;;;;;;31.94;20.30;97585.78;10022486;29;20042;-76
2022/05/11 12:33:05;;;;;;;3.88;1.83;;;;;;;32.25;19.69;97576.50;9996304;29;20568;-76
2022/05/11 12:38:34;;;;;;;9.13;1.77;;;;;;;32.10;19.52;97579.69;10009081;29;20098;-77
2022/05/11 12:44:12;;;;;;;6.65;2.03;;;;;;;31.57;20.01;97569.16;10005212;29;20120;-77
2022/05/11 12:49:33;;;;;;;4.33;1.80;;;;;;;31.42;19.61;97568.00;10002890;29;20484;-78
2022/05/11 12:55:02;;;;;;;2.60;2.00;;;;;;;30.95;20.37;97560.13;10027783;29;21440;-78
2022/05/11 13:00:25;;;;;;;5.93;1.92;;;;;;;31.06;20.70;97549.84;10010304;29;20400;-78
2022/05/11 13:05:46;;;;;;;4.20;1.60;;;;;;;31.15;20.65;97543.94;9983903;29;20053;-77
2022/05/11 13:11:07;;;;;;;2.97;1.90;;;;;;;31.02;20.90;97549.22;9994938;29;20378;-77
2022/05/11 13:16:31;;;;;;;3.67;1.80;;;;;;;30.87;20.48;97534.31;10008265;29;20092;-76
2022/05/11 13:21:53;;;;;;;6.43;2.38;;;;;;;30.55;20.95;97517.53;10018852;29;20453;-76
2022/05/11 13:27:48;;;;;;;5.45;1.67;;;;;;;30.42;20.65;97511.28;10019750;29;20053;-76
2022/05/11 13:33:34;;;;;;;6.50;1.60;;;;;;;30.40;21.11;97517.03;10045750;29;20046;-76
2022/05/11 13:38:56;;;;;;;2.45;1.48;;;;;;;30.25;20.85;97510.78;10014085;29;20053;-78
2022/05/11 13:44:52;;;;;;;4.75;1.67;;;;;;;30.11;21.02;97500.19;10006490;29;20058;-76
2022/05/11 13:50:34;;;;;;;4.00;1.45;;;;;;;30.13;20.94;97494.41;10018016;29;20128;-76
2022/05/11 13:56:16;;;;;;;7.75;1.52;;;;;;;29.97;20.38;97485.25;9994269;29;20050;-77
2022/05/11 14:01:47;;;;;;;4.78;1.67;;;;;;;29.62;20.47;97491.44;10019690;29;20054;-76
2022/05/11 14:07:10;;;;;;;4.05;1.65;;;;;;;29.60;20.93;97480.69;9995404;29;20062;-76
2022/05/11 14:12:34;;;;;;;5.05;1.38;;;;;;;29.65;21.29;97478.47;10006380;29;20061;-75
2022/05/11 14:17:55;;;;;;;2.17;1.60;;;;;;;29.67;20.92;97472.69;10006479;29;20106;-75
2022/05/11 14:23:17;;;;;;;3.70;1.60;;;;;;;29.47;21.20;97470.06;10017206;29;20046;-77
2022/05/11 14:28:38;;;;;;;3.42;1.88;;;;;;;29.22;21.77;97458.09;9989619;29;20046;-75
2022/05/11 14:33:59;;;;;;;;;;;;;;;29.16;22.10;97449.56;10019229;29;20064;-75
2022/05/11 14:39:24;;;;;;;3.43;1.70;;;;;;;29.15;21.93;97451.00;10019103;29;19935;-76
2022/05/11 14:44:47;;;;;;;5.13;1.38;;;;;;;29.20;21.86;97443.75;10005991;29;20053;-76
2022/05/11 14:50:20;;;;;;;1.60;1.40;;;;;;;29.10;21.76;97441.72;9996398;29;20046;-78
2022/05/11 14:55:42;;;;;;;4.57;1.80;;;;;;;28.95;22.13;97434.69;10010242;29;20058;-77
2022/05/11 15:06:42;;;;;;;2.58;1.90;;;;;;;28.87;22.38;97423.28;10023013;29;20081;-77
2022/05/11 15:17:44;;;;;;;1.88;1.67;;;;;;;28.89;23.06;97431.88;10020871;29;20080;-76
2022/05/11 15:23:11;;;;;;;3.35;2.10;;;;;;;28.84;23.43;97428.31;10050042;29;20117;-75
2022/05/11 15:28:32;;;;;;;2.15;1.83;;;;;;;28.73;23.81;97427.69;10036890;29;20054;-77
2022/05/11 15:33:52;;;;;;;2.22;2.00;;;;;;;28.75;24.02;97421.91;10036731;29;20064;-78
2022/05/11 15:39:13;;;;;;;3.88;1.88;;;;;;;28.62;24.05;97419.91;10049272;29;20098;-78
2022/05/11 15:44:35;;;;;;;5.13;1.77;;;;;;;28.54;24.18;97420.69;10034028;29;20053;-81
2022/05/11 15:49:56;;;;;;;3.28;1.70;;;;;;;28.43;24.36;97416.47;10034320;29;20041;-80
2022/05/11 15:55:18;;;;;;;2.97;1.95;;;;;;;28.36;24.68;97417.97;10034175;29;20060;-78
2022/05/11 16:00:39;;;;;;;3.00;1.42;;;;;;;28.30;24.38;97423.78;10021880;29;20037;-76
2022/05/11 16:06:00;;;;;;;2.45;1.83;;;;;;;28.21;23.84;97415.19;10022875;29;20544;-76
2022/05/11 16:11:24;;;;;;;4.57;1.45;;;;;;;28.12;24.20;97398.78;10022946;29;20046;-77
2022/05/11 16:16:45;;;;;;;4.20;1.73;;;;;;;28.02;23.96;97410.31;10023638;29;20058;-76
2022/05/11 16:22:06;;;;;;;4.18;1.58;;;;;;;27.98;24.86;97408.19;10035983;29;20049;-76
2022/05/11 16:27:27;;;;;;;2.78;1.58;;;;;;;27.91;24.62;97396.06;10048662;29;20486;-76
2022/05/11 16:32:49;;;;;;;7.30;2.00;;;;;;;27.89;25.21;97395.31;10035123;29;20052;-76
2022/05/11 16:38:10;;;;;;;2.83;1.60;;;;;;;27.82;25.17;97391.09;10035141;29;20050;-76
2022/05/11 16:43:34;;;;;;;3.70;1.42;;;;;;;27.73;25.51;97392.59;10034447;29;20046;-76
2022/05/11 16:48:54;;;;;;;3.97;1.70;;;;;;;27.70;25.40;97377.56;10034262;29;20050;-76
2022/05/11 16:54:17;;;;;;;4.50;1.70;;;;;;;27.57;25.41;97388.31;10033992;29;20054;-75
2022/05/11 16:59:41;;;;;;;4.95;1.75;;;;;;;27.53;25.45;97379.75;10035370;29;20270;-79
2022/05/11 17:05:03;;;;;;;2.83;1.50;;;;;;;27.46;25.32;97372.63;10033696;29;20056;-75
2022/05/11 17:10:24;;;;;;;4.32;1.45;;;;;;;27.40;25.51;97381.25;10020744;29;20057;-76
2022/05/11 17:15:52;;;;;;;3.40;1.38;;;;;;;27.29;25.11;97383.44;10020267;29;20053;-77
2022/05/11 17:21:14;;;;;;;2.15;1.25;;;;;;;27.20;24.96;97370.59;10022020;29;20132;-75
2022/05/11 17:26:35;;;;;;;3.35;1.20;;;;;;;27.17;24.77;97383.50;10033363;29;20056;-77
2022/05/11 17:31:56;;;;;;;1.50;1.30;;;;;;;27.07;25.19;97380.69;10020499;29;20046;-77
2022/05/11 17:37:17;;;;;;;2.72;1.45;;;;;;;27.02;25.07;97379.22;10032938;29;20049;-77
2022/05/11 17:42:42;;;;;;;3.15;1.10;;;;;;;26.95;24.80;97384.28;10045821;29;20057;-76
2022/05/11 17:48:03;;;;;;;3.47;1.30;;;;;;;26.89;25.16;97383.56;10033613;29;20102;-77
2022/05/11 17:53:24;;;;;;;1.98;1.15;;;;;;;26.79;25.23;97381.44;10032575;29;20481;-78
2022/05/11 17:58:45;;;;;;;2.30;1.20;;;;;;;26.68;25.30;97382.91;10032116;29;20045;-75
2022/05/11 18:04:06;;;;;;;5.43;1.08;;;;;;;26.58;24.90;97380.06;10031722;29;20053;-76
2022/05/11 18:09:27;;;;;;;2.92;1.20;;;;;;;26.43;25.06;97376.50;10032127;29;20041;-77
2022/05/11 18:14:48;;;;;;;6.65;1.30;;;;;;;26.29;25.44;97388.63;10032056;29;20061;-77
2022/05/11 18:20:16;;;;;;;5.95;1.13;;;;;;;26.15;25.70;97383.66;10044433;29;20077;-76
2022/05/11 18:25:38;;;;;;;3.88;1.38;;;;;;;26.00;25.73;97381.47;10031944;29;20050;-76
2022/05/11 18:30:59;;;;;;;2.33;1.13;;;;;;;25.85;25.83;97384.31;10037009;29;20106;-77
2022/05/11 18:36:20;;;;;;;2.47;1.38;;;;;;;25.70;26.20;97388.59;10038498;29;20061;-76
2022/05/11 18:41:41;;;;;;;4.40;1.50;;;;;;;25.55;25.98;97399.22;10038336;29;20097;-75
2022/05/11 18:47:04;;;;;;;2.35;1.20;;;;;;;25.38;26.42;97404.19;10026342;29;20052;-76
2022/05/11 18:52:26;;;;;;;1.65;1.23;;;;;;;25.21;26.71;97402.69;10037862;29;20400;-79
2022/05/11 18:57:52;;;;;;;6.78;1.95;;;;;;;25.10;26.91;97419.06;10020981;29;20052;-77
2022/05/11 19:03:13;;;;;;;3.20;1.27;;;;;;;25.01;27.04;97422.56;10013892;29;20412;-76
2022/05/11 19:08:33;;;;;;;4.88;1.50;;;;;;;24.92;27.22;97423.91;10002225;29;20068;-78
2022/05/11 19:13:55;;;;;;;2.85;1.10;;;;;;;24.80;27.13;97424.53;10034032;29;20565;-78
2022/05/11 19:19:17;;;;;;;5.53;1.83;;;;;;;24.67;27.71;97420.91;10037403;29;20049;-77
2022/05/11 19:24:39;;;;;;;4.53;1.48;;;;;;;24.60;27.58;97425.13;10024433;29;20081;-75
2022/05/11 19:30:00;;;;;;;4.03;1.45;;;;;;;24.49;27.71;97429.31;10036724;29;20540;-74
2022/05/11 19:35:22;;;;;;;2.83;1.83;;;;;;;24.38;27.86;97419.25;10037676;29;20082;-74
2022/05/11 19:40:43;;;;;;;5.23;1.80;;;;;;;24.27;27.96;97427.72;10047940;29;20053;-74
2022/05/11 19:46:10;;;;;;;8.05;1.70;;;;;;;24.19;28.08;97432.63;10000038;29;20306;-76
2022/05/11 19:51:31;;;;;;;5.22;1.65;;;;;;;24.08;28.10;97433.94;10001980;29;20477;-75
2022/05/11 19:56:53;;;;;;;4.30;1.63;;;;;;;24.03;28.39;97418.94;10023092;29;20496;-74
2022/05/11 20:02:14;;;;;;;2.80;1.48;;;;;;;23.93;28.44;97425.28;10035851;29;20433;-75
2022/05/11 20:07:35;;;;;;;2.72;2.00;;;;;;;23.85;28.72;97430.16;10035953;29;20045;-75
2022/05/11 20:12:56;;;;;;;3.10;1.65;;;;;;;23.82;28.75;97423.72;10029433;29;20049;-75
2022/05/11 20:18:17;;;;;;;5.00;1.42;;;;;;;23.75;28.83;97421.50;10041063;29;20041;-75
2022/05/11 20:23:41;;;;;;;3.65;1.50;;;;;;;23.65;29.15;97413.59;10014291;29;20038;-76
2022/05/11 20:29:02;;;;;;;5.60;1.75;;;;;;;23.64;29.12;97415.72;10028905;29;20078;-75
2022/05/11 20:40:04;;;;;;;1.42;1.25;;;;;;;23.39;29.46;97411.13;10029527;29;20056;-75
2022/05/11 20:45:32;;;;;;;5.32;1.42;;;;;;;23.35;29.60;97403.22;10009404;29;20050;-75
2022/05/11 20:50:54;;;;;;;2.90;1.52;;;;;;;23.27;29.74;97408.13;9991563;29;20054;-74
2022/05/11 20:56:15;;;;;;;6.93;2.33;;;;;;;23.23;29.72;97405.94;10008615;29;20081;-76
2022/05/11 21:01:36;;;;;;;3.75;1.35;;;;;;;23.08;30.00;97393.66;9995519;29;20493;-75
2022/05/11 21:06:57;;;;;;;2.80;1.58;;;;;;;23.04;29.90;97410.69;9995869;29;20053;-76
2022/05/11 21:12:18;;;;;;;2.95;1.52;;;;;;;22.99;30.46;97403.50;10004966;29;20049;-74
2022/05/11 21:17:40;;;;;;;3.35;1.45;;;;;;;22.98;30.49;97404.91;10025219;29;20132;-77
2022/05/11 21:23:01;;;;;;;4.65;1.50;;;;;;;22.96;30.72;97398.47;9997574;29;20053;-75
2022/05/11 21:28:22;;;;;;;4.10;1.88;;;;;;;22.88;30.90;97396.25;10031203;29;20122;-75
2022/05/11 21:33:43;;;;;;;2.45;1.58;;;;;;;22.85;30.91;97398.31;10040375;29;20057;-75
2022/05/11 21:39:04;;;;;;;2.30;1.60;;;;;;;22.80;31.20;97396.09;10024619;29;20454;-75
2022/05/11 21:44:25;;;;;;;5.65;1.70;;;;;;;22.74;31.17;97391.03;10011919;29;20061;-75
2022/05/11 21:49:45;;;;;;;2.92;1.45;;;;;;;22.64;31.51;97398.72;10001476;29;20045;-75
2022/05/11 21:55:07;;;;;;;3.10;1.88;;;;;;;22.56;31.66;97397.19;10009185;29;20049;-74
2022/05/11 22:00:28;;;;;;;2.20;1.55;;;;;;;22.51;31.68;97398.53;10001819;29;20554;-75
2022/05/11 22:05:49;;;;;;;5.55;1.98;;;;;;;22.49;31.87;97404.19;10016331;29;20049;-75
2022/05/11 22:11:10;;;;;;;2.90;1.50;;;;;;;22.44;32.07;97405.53;10044210;29;20041;-75
2022/05/11 22:16:30;;;;;;;2.88;1.70;;;;;;;22.39;32.48;97401.19;10026784;29;20121;-75
2022/05/11 22:21:51;;;;;;;4.00;1.52;;;;;;;22.34;32.82;97396.13;10039742;29;20045;-74
2022/05/11 22:27:12;;;;;;;2.85;1.52;;;;;;;22.25;32.78;97395.28;10038976;29;20050;-74
2022/05/11 22:32:34;;;;;;;6.50;1.63;;;;;;;22.22;33.01;97399.50;10051819;29;20484;-74
2022/05/11 22:38:05;;;;;;;3.30;1.52;;;;;;;22.14;33.19;97388.72;10039793;29;20496;-74
2022/05/11 22:43:43;;;;;;;7.40;1.90;;;;;;;22.17;33.24;97397.97;10043665;29;20412;-75
2022/05/11 22:49:17;;;;;;;2.72;1.80;;;;;;;22.14;33.29;97393.69;10041145;29;20137;-74
2022/05/11 22:54:45;;;;;;;4.50;1.83;;;;;;;22.10;33.74;97396.44;10052542;29;20129;-74
2022/05/11 23:00:56;;;;;;;5.05;1.70;;;;;;;22.01;33.75;97409.78;9971723;29;20058;-75
2022/05/11 23:06:21;;;;;;;2.53;1.40;;;;;;;22.00;34.22;97419.69;9958792;29;20058;-75
2022/05/11 23:11:54;;;;;;;4.20;2.03;;;;;;;21.95;34.41;97404.69;9972365;29;20560;-74
2022/05/11 23:17:15;;;;;;;5.18;1.73;;;;;;;21.86;34.71;97408.09;9931444;29;20417;-74
2022/05/11 23:22:45;;;;;;;4.53;2.00;;;;;;;21.80;34.66;97403.00;9933570;29;20529;-75
2022/05/11 23:28:11;;;;;;;4.68;1.80;;;;;;;21.71;34.67;97407.84;9933643;29;20054;-74
2022/05/11 23:33:32;;;;;;;3.20;1.88;;;;;;;21.73;34.82;97401.47;9933405;29;20066;-74
2022/05/11 23:38:53;;;;;;;5.82;1.80;;;;;;;21.68;34.99;97403.50;9933410;29;20058;-74
2022/05/11 23:44:16;;;;;;;4.50;1.95;;;;;;;21.66;35.13;97397.78;9920202;29;20062;-75
2022/05/11 23:49:37;;;;;;;3.22;1.90;;;;;;;21.67;34.87;97395.69;9943420;29;20061;-75
2022/05/11 23:54:58;;;;;;;5.10;2.00;;;;;;;21.63;35.24;97389.94;10036609;29;20053;-74
